sensor_id;sensor_type;location;lat;lon;timestamp;temperature;humidity
11824;DHT22;5969;50.780;7.726;2023-04-19T00:00:17;10.90;99.90
11824;DHT22;5969;50.780;7.726;2023-04-19T00:02:47;10.90;99.90
11824;DHT22;5969;50.780;7.726;2023-04-19T00:05:15;10.80;99.90
11824;DHT22;5969;50.780;7.726;2023-04-19T00:07:43;10.90;99.90
11824;DHT22;5969;50.780;7.726;2023-04-19T00:10:11;10.90;99.90
11824;DHT22;5969;50.780;7.726;2023-04-19T00:12:38;10.90;99.90
11824;DHT22;5969;50.780;7.726;2023-04-19T00:15:05;10.90;99.90
11824;DHT22;5969;50.780;7.726;2023-04-19T00:17:32;10.80;99.90
11824;DHT22;5969;50.780;7.726;2023-04-19T00:20:00;10.90;99.90
11824;DHT22;5969;50.780;7.726;2023-04-19T00:22:27;10.90;99.90
11824;DHT22;5969;50.780;7.726;2023-04-19T00:24:55;10.80;99.90
11824;DHT22;5969;50.780;7.726;2023-04-19T00:27:24;10.80;99.90
11824;DHT22;5969;50.780;7.726;2023-04-19T00:29:51;10.80;99.90
11824;DHT22;5969;50.780;7.726;2023-04-19T00:32:18;10.90;99.90
11824;DHT22;5969;50.780;7.726;2023-04-19T00:34:44;10.90;99.90
11824;DHT22;5969;50.780;7.726;2023-04-19T00:37:11;10.90;99.90
11824;DHT22;5969;50.780;7.726;2023-04-19T00:39:39;10.80;99.90
11824;DHT22;5969;50.780;7.726;2023-04-19T00:42:06;10.80;99.90
11824;DHT22;5969;50.780;7.726;2023-04-19T00:44:34;10.80;99.90
11824;DHT22;5969;50.780;7.726;2023-04-19T00:47:01;10.70;99.90
11824;DHT22;5969;50.780;7.726;2023-04-19T00:49:28;10.70;99.90
11824;DHT22;5969;50.780;7.726;2023-04-19T00:51:55;10.70;99.90
11824;DHT22;5969;50.780;7.726;2023-04-19T00:54:23;10.70;99.90
11824;DHT22;5969;50.780;7.726;2023-04-19T00:56:50;10.70;99.90
11824;DHT22;5969;50.780;7.726;2023-04-19T00:59:17;10.70;99.90
11824;DHT22;5969;50.780;7.726;2023-04-19T01:01:46;10.60;99.90
11824;DHT22;5969;50.780;7.726;2023-04-19T01:04:14;10.60;99.90
11824;DHT22;5969;50.780;7.726;2023-04-19T01:06:41;10.50;99.90
11824;DHT22;5969;50.780;7.726;2023-04-19T01:09:22;10.50;99.90
11824;DHT22;5969;50.780;7.726;2023-04-19T01:11:49;10.50;99.90
11824;DHT22;5969;50.780;7.726;2023-04-19T01:14:16;10.50;99.90
11824;DHT22;5969;50.780;7.726;2023-04-19T01:16:43;10.50;99.90
11824;DHT22;5969;50.780;7.726;2023-04-19T01:19:12;10.50;99.90
11824;DHT22;5969;50.780;7.726;2023-04-19T01:21:39;10.60;99.90
11824;DHT22;5969;50.780;7.726;2023-04-19T01:24:08;10.60;99.90
11824;DHT22;5969;50.780;7.726;2023-04-19T01:26:35;10.60;99.90
11824;DHT22;5969;50.780;7.726;2023-04-19T01:29:02;10.50;99.90
11824;DHT22;5969;50.780;7.726;2023-04-19T01:31:29;10.60;99.90
11824;DHT22;5969;50.780;7.726;2023-04-19T01:34:06;10.50;99.90
11824;DHT22;5969;50.780;7.726;2023-04-19T01:36:32;10.60;99.90
11824;DHT22;5969;50.780;7.726;2023-04-19T01:38:59;10.50;99.90
11824;DHT22;5969;50.780;7.726;2023-04-19T01:41:27;10.50;99.90
11824;DHT22;5969;50.780;7.726;2023-04-19T01:43:55;10.50;99.90
11824;DHT22;5969;50.780;7.726;2023-04-19T01:46:23;10.50;99.90
11824;DHT22;5969;50.780;7.726;2023-04-19T01:48:49;10.50;99.90
11824;DHT22;5969;50.780;7.726;2023-04-19T01:51:16;10.50;99.90
11824;DHT22;5969;50.780;7.726;2023-04-19T01:53:46;10.40;99.90
11824;DHT22;5969;50.780;7.726;2023-04-19T01:56:16;10.50;99.90
11824;DHT22;5969;50.780;7.726;2023-04-19T01:58:45;10.40;99.90
11824;DHT22;5969;50.780;7.726;2023-04-19T02:01:11;10.50;99.90
11824;DHT22;5969;50.780;7.726;2023-04-19T02:03:38;10.50;99.90
11824;DHT22;5969;50.780;7.726;2023-04-19T02:06:09;10.50;99.90
11824;DHT22;5969;50.780;7.726;2023-04-19T02:08:36;10.50;99.90
11824;DHT22;5969;50.780;7.726;2023-04-19T02:11:05;10.50;99.90
11824;DHT22;5969;50.780;7.726;2023-04-19T02:13:33;10.60;99.90
11824;DHT22;5969;50.780;7.726;2023-04-19T02:16:02;10.50;99.90
11824;DHT22;5969;50.780;7.726;2023-04-19T02:18:30;10.60;99.90
11824;DHT22;5969;50.780;7.726;2023-04-19T02:20:57;10.60;99.90
11824;DHT22;5969;50.780;7.726;2023-04-19T02:23:25;10.60;99.90
11824;DHT22;5969;50.780;7.726;2023-04-19T02:25:52;10.60;99.90
11824;DHT22;5969;50.780;7.726;2023-04-19T02:31:09;10.70;99.90
11824;DHT22;5969;50.780;7.726;2023-04-19T02:33:36;10.70;99.90
11824;DHT22;5969;50.780;7.726;2023-04-19T02:36:03;10.70;99.90
11824;DHT22;5969;50.780;7.726;2023-04-19T02:38:30;10.60;99.90
11824;DHT22;5969;50.780;7.726;2023-04-19T02:40:57;10.70;99.90
11824;DHT22;5969;50.780;7.726;2023-04-19T02:43:30;10.70;99.90
11824;DHT22;5969;50.780;7.726;2023-04-19T02:45:57;10.70;99.90
11824;DHT22;5969;50.780;7.726;2023-04-19T02:48:25;10.70;99.90
11824;DHT22;5969;50.780;7.726;2023-04-19T02:50:52;10.80;99.90
11824;DHT22;5969;50.780;7.726;2023-04-19T02:53:26;10.70;99.90
11824;DHT22;5969;50.780;7.726;2023-04-19T02:55:54;10.70;99.90
11824;DHT22;5969;50.780;7.726;2023-04-19T02:58:20;10.70;99.90
11824;DHT22;5969;50.780;7.726;2023-04-19T03:00:47;10.70;99.90
11824;DHT22;5969;50.780;7.726;2023-04-19T03:03:14;10.70;99.90
11824;DHT22;5969;50.780;7.726;2023-04-19T03:05:56;10.70;99.90
11824;DHT22;5969;50.780;7.726;2023-04-19T03:08:23;10.70;99.90
11824;DHT22;5969;50.780;7.726;2023-04-19T03:10:50;10.70;99.90
11824;DHT22;5969;50.780;7.726;2023-04-19T03:13:17;10.70;99.90
11824;DHT22;5969;50.780;7.726;2023-04-19T03:15:46;10.70;99.90
11824;DHT22;5969;50.780;7.726;2023-04-19T03:18:19;10.60;99.90
11824;DHT22;5969;50.780;7.726;2023-04-19T03:20:46;10.70;99.90
11824;DHT22;5969;50.780;7.726;2023-04-19T03:23:15;10.70;99.90
11824;DHT22;5969;50.780;7.726;2023-04-19T03:25:51;10.70;99.90
11824;DHT22;5969;50.780;7.726;2023-04-19T03:28:18;10.60;99.90
11824;DHT22;5969;50.780;7.726;2023-04-19T03:30:45;10.60;99.90
11824;DHT22;5969;50.780;7.726;2023-04-19T03:33:14;10.70;99.90
11824;DHT22;5969;50.780;7.726;2023-04-19T03:35:51;10.70;99.90
11824;DHT22;5969;50.780;7.726;2023-04-19T03:38:19;10.60;99.90
11824;DHT22;5969;50.780;7.726;2023-04-19T03:40:48;10.60;99.90
11824;DHT22;5969;50.780;7.726;2023-04-19T03:43:15;10.60;99.90
11824;DHT22;5969;50.780;7.726;2023-04-19T03:45:42;10.60;99.90
11824;DHT22;5969;50.780;7.726;2023-04-19T03:48:10;10.60;99.90
11824;DHT22;5969;50.780;7.726;2023-04-19T03:50:36;10.60;99.90
11824;DHT22;5969;50.780;7.726;2023-04-19T03:53:03;10.50;99.90
11824;DHT22;5969;50.780;7.726;2023-04-19T03:55:32;10.60;99.90
11824;DHT22;5969;50.780;7.726;2023-04-19T03:58:07;10.60;99.90
11824;DHT22;5969;50.780;7.726;2023-04-19T04:00:35;10.50;99.90
11824;DHT22;5969;50.780;7.726;2023-04-19T04:03:02;10.60;99.90
11824;DHT22;5969;50.780;7.726;2023-04-19T04:05:29;10.60;99.90
11824;DHT22;5969;50.780;7.726;2023-04-19T04:07:56;10.60;99.90
11824;DHT22;5969;50.780;7.726;2023-04-19T04:10:23;10.60;99.90
11824;DHT22;5969;50.780;7.726;2023-04-19T04:12:51;10.60;99.90
11824;DHT22;5969;50.780;7.726;2023-04-19T04:15:18;10.60;99.90
11824;DHT22;5969;50.780;7.726;2023-04-19T04:17:45;10.60;99.90
11824;DHT22;5969;50.780;7.726;2023-04-19T04:20:15;10.60;99.90
11824;DHT22;5969;50.780;7.726;2023-04-19T04:22:42;10.60;99.90
11824;DHT22;5969;50.780;7.726;2023-04-19T04:25:10;10.60;99.90
11824;DHT22;5969;50.780;7.726;2023-04-19T04:27:38;10.60;99.90
11824;DHT22;5969;50.780;7.726;2023-04-19T04:30:07;10.50;99.90
11824;DHT22;5969;50.780;7.726;2023-04-19T04:32:34;10.50;99.90
11824;DHT22;5969;50.780;7.726;2023-04-19T04:35:01;10.50;99.90
11824;DHT22;5969;50.780;7.726;2023-04-19T04:37:39;10.50;99.90
11824;DHT22;5969;50.780;7.726;2023-04-19T04:40:21;10.50;99.90
11824;DHT22;5969;50.780;7.726;2023-04-19T04:42:48;10.40;99.90
11824;DHT22;5969;50.780;7.726;2023-04-19T04:45:18;10.50;99.90
11824;DHT22;5969;50.780;7.726;2023-04-19T04:47:46;10.50;99.90
11824;DHT22;5969;50.780;7.726;2023-04-19T04:50:13;10.50;99.90
11824;DHT22;5969;50.780;7.726;2023-04-19T04:52:40;10.40;99.90
11824;DHT22;5969;50.780;7.726;2023-04-19T04:55:07;10.40;99.90
11824;DHT22;5969;50.780;7.726;2023-04-19T04:57:35;10.40;99.90
11824;DHT22;5969;50.780;7.726;2023-04-19T05:00:03;10.50;99.90
11824;DHT22;5969;50.780;7.726;2023-04-19T05:02:34;10.50;99.90
11824;DHT22;5969;50.780;7.726;2023-04-19T05:05:01;10.50;99.90
11824;DHT22;5969;50.780;7.726;2023-04-19T05:07:29;10.40;99.90
11824;DHT22;5969;50.780;7.726;2023-04-19T05:09:56;10.50;99.90
11824;DHT22;5969;50.780;7.726;2023-04-19T05:12:22;10.50;99.90
11824;DHT22;5969;50.780;7.726;2023-04-19T05:14:50;10.50;99.90
11824;DHT22;5969;50.780;7.726;2023-04-19T05:17:18;10.60;99.90
11824;DHT22;5969;50.780;7.726;2023-04-19T05:19:46;10.50;99.90
11824;DHT22;5969;50.780;7.726;2023-04-19T05:22:13;10.50;99.90
11824;DHT22;5969;50.780;7.726;2023-04-19T05:24:51;10.50;99.90
11824;DHT22;5969;50.780;7.726;2023-04-19T05:27:25;10.50;99.90
11824;DHT22;5969;50.780;7.726;2023-04-19T05:29:52;10.60;99.90
11824;DHT22;5969;50.780;7.726;2023-04-19T05:32:19;10.70;99.90
11824;DHT22;5969;50.780;7.726;2023-04-19T05:34:47;10.70;99.90
11824;DHT22;5969;50.780;7.726;2023-04-19T05:37:14;10.70;99.90
11824;DHT22;5969;50.780;7.726;2023-04-19T05:39:41;10.60;99.90
11824;DHT22;5969;50.780;7.726;2023-04-19T05:42:08;10.60;99.90
11824;DHT22;5969;50.780;7.726;2023-04-19T05:44:35;10.70;99.90
11824;DHT22;5969;50.780;7.726;2023-04-19T05:47:02;10.70;99.90
11824;DHT22;5969;50.780;7.726;2023-04-19T05:49:30;10.80;99.90
11824;DHT22;5969;50.780;7.726;2023-04-19T05:52:01;10.90;99.90
11824;DHT22;5969;50.780;7.726;2023-04-19T05:54:28;10.90;99.90
11824;DHT22;5969;50.780;7.726;2023-04-19T05:56:58;11.00;99.90
11824;DHT22;5969;50.780;7.726;2023-04-19T05:59:25;11.10;99.90
11824;DHT22;5969;50.780;7.726;2023-04-19T06:01:52;11.20;99.90
11824;DHT22;5969;50.780;7.726;2023-04-19T06:04:20;11.20;99.90
11824;DHT22;5969;50.780;7.726;2023-04-19T06:06:49;11.30;99.90
11824;DHT22;5969;50.780;7.726;2023-04-19T06:09:18;11.20;99.90
11824;DHT22;5969;50.780;7.726;2023-04-19T06:11:45;11.30;99.90
11824;DHT22;5969;50.780;7.726;2023-04-19T06:14:12;11.50;99.90
11824;DHT22;5969;50.780;7.726;2023-04-19T06:16:40;11.50;99.90
11824;DHT22;5969;50.780;7.726;2023-04-19T06:19:08;11.50;99.90
11824;DHT22;5969;50.780;7.726;2023-04-19T06:21:35;11.60;99.90
11824;DHT22;5969;50.780;7.726;2023-04-19T06:24:02;11.60;99.90
11824;DHT22;5969;50.780;7.726;2023-04-19T06:26:30;11.70;99.90
11824;DHT22;5969;50.780;7.726;2023-04-19T06:28:57;11.80;99.90
11824;DHT22;5969;50.780;7.726;2023-04-19T06:31:50;11.90;99.90
11824;DHT22;5969;50.780;7.726;2023-04-19T06:34:17;12.00;99.90
11824;DHT22;5969;50.780;7.726;2023-04-19T06:36:48;12.00;99.90
11824;DHT22;5969;50.780;7.726;2023-04-19T06:39:15;12.10;99.90
11824;DHT22;5969;50.780;7.726;2023-04-19T06:41:44;12.20;99.90
11824;DHT22;5969;50.780;7.726;2023-04-19T06:44:11;12.20;99.90
11824;DHT22;5969;50.780;7.726;2023-04-19T06:46:54;12.20;99.90
11824;DHT22;5969;50.780;7.726;2023-04-19T06:49:21;12.20;99.90
11824;DHT22;5969;50.780;7.726;2023-04-19T06:51:48;12.20;99.90
11824;DHT22;5969;50.780;7.726;2023-04-19T06:54:15;12.10;99.90
11824;DHT22;5969;50.780;7.726;2023-04-19T06:56:45;12.20;99.90
11824;DHT22;5969;50.780;7.726;2023-04-19T06:59:20;12.30;99.90
11824;DHT22;5969;50.780;7.726;2023-04-19T07:01:47;12.40;99.90
11824;DHT22;5969;50.780;7.726;2023-04-19T07:04:17;12.30;99.90
11824;DHT22;5969;50.780;7.726;2023-04-19T07:06:47;12.20;99.90
11824;DHT22;5969;50.780;7.726;2023-04-19T07:09:14;12.20;99.90
11824;DHT22;5969;50.780;7.726;2023-04-19T07:11:42;12.00;99.90
11824;DHT22;5969;50.780;7.726;2023-04-19T07:14:10;12.00;99.90
11824;DHT22;5969;50.780;7.726;2023-04-19T07:16:37;11.90;99.90
11824;DHT22;5969;50.780;7.726;2023-04-19T07:19:13;11.90;99.90
11824;DHT22;5969;50.780;7.726;2023-04-19T07:24:39;11.70;99.90
11824;DHT22;5969;50.780;7.726;2023-04-19T07:27:20;11.80;99.90
11824;DHT22;5969;50.780;7.726;2023-04-19T07:29:51;11.90;99.90
11824;DHT22;5969;50.780;7.726;2023-04-19T07:32:18;11.80;99.90
11824;DHT22;5969;50.780;7.726;2023-04-19T07:34:45;11.80;99.90
11824;DHT22;5969;50.780;7.726;2023-04-19T07:37:12;11.90;99.90
11824;DHT22;5969;50.780;7.726;2023-04-19T07:39:40;11.80;99.90
11824;DHT22;5969;50.780;7.726;2023-04-19T07:42:07;11.90;99.90
11824;DHT22;5969;50.780;7.726;2023-04-19T07:44:34;12.00;99.90
11824;DHT22;5969;50.780;7.726;2023-04-19T07:47:02;12.00;99.90
11824;DHT22;5969;50.780;7.726;2023-04-19T07:49:29;12.00;99.90
11824;DHT22;5969;50.780;7.726;2023-04-19T07:51:58;12.00;99.90
11824;DHT22;5969;50.780;7.726;2023-04-19T07:54:26;12.10;99.90
11824;DHT22;5969;50.780;7.726;2023-04-19T07:56:53;12.20;99.90
11824;DHT22;5969;50.780;7.726;2023-04-19T07:59:20;12.30;99.90
11824;DHT22;5969;50.780;7.726;2023-04-19T08:01:47;12.40;99.90
11824;DHT22;5969;50.780;7.726;2023-04-19T08:04:16;12.50;99.90
11824;DHT22;5969;50.780;7.726;2023-04-19T08:06:44;12.50;99.90
11824;DHT22;5969;50.780;7.726;2023-04-19T08:09:11;12.50;99.90
11824;DHT22;5969;50.780;7.726;2023-04-19T08:11:38;12.50;99.90
11824;DHT22;5969;50.780;7.726;2023-04-19T08:14:05;12.50;99.90
11824;DHT22;5969;50.780;7.726;2023-04-19T08:16:32;12.50;99.90
11824;DHT22;5969;50.780;7.726;2023-04-19T08:19:00;12.60;99.90
11824;DHT22;5969;50.780;7.726;2023-04-19T08:21:34;12.60;99.90
11824;DHT22;5969;50.780;7.726;2023-04-19T08:24:04;12.70;99.90
11824;DHT22;5969;50.780;7.726;2023-04-19T08:26:32;12.70;99.90
11824;DHT22;5969;50.780;7.726;2023-04-19T08:28:59;12.80;99.90
11824;DHT22;5969;50.780;7.726;2023-04-19T08:31:36;12.90;99.90
11824;DHT22;5969;50.780;7.726;2023-04-19T08:34:05;13.00;99.90
11824;DHT22;5969;50.780;7.726;2023-04-19T08:36:34;13.00;99.90
11824;DHT22;5969;50.780;7.726;2023-04-19T08:39:01;13.20;99.90
11824;DHT22;5969;50.780;7.726;2023-04-19T08:41:29;13.10;99.90
11824;DHT22;5969;50.780;7.726;2023-04-19T08:43:56;13.20;99.90
11824;DHT22;5969;50.780;7.726;2023-04-19T08:46:24;13.30;99.90
11824;DHT22;5969;50.780;7.726;2023-04-19T08:48:51;13.50;99.90
11824;DHT22;5969;50.780;7.726;2023-04-19T08:51:18;13.60;99.90
11824;DHT22;5969;50.780;7.726;2023-04-19T08:53:49;13.60;99.90
11824;DHT22;5969;50.780;7.726;2023-04-19T08:56:17;13.70;99.40
11824;DHT22;5969;50.780;7.726;2023-04-19T08:58:45;13.60;99.10
11824;DHT22;5969;50.780;7.726;2023-04-19T09:01:41;13.50;98.70
11824;DHT22;5969;50.780;7.726;2023-04-19T09:04:24;13.50;99.20
11824;DHT22;5969;50.780;7.726;2023-04-19T09:07:21;13.70;99.50
11824;DHT22;5969;50.780;7.726;2023-04-19T09:10:03;13.80;98.80
11824;DHT22;5969;50.780;7.726;2023-04-19T09:12:31;13.90;98.90
11824;DHT22;5969;50.780;7.726;2023-04-19T09:15:00;13.90;98.60
11824;DHT22;5969;50.780;7.726;2023-04-19T09:17:28;13.90;98.90
11824;DHT22;5969;50.780;7.726;2023-04-19T09:19:56;14.00;98.20
11824;DHT22;5969;50.780;7.726;2023-04-19T09:22:23;14.00;98.20
11824;DHT22;5969;50.780;7.726;2023-04-19T09:24:52;14.20;98.20
11824;DHT22;5969;50.780;7.726;2023-04-19T09:27:26;14.20;97.30
11824;DHT22;5969;50.780;7.726;2023-04-19T09:29:53;14.20;97.70
11824;DHT22;5969;50.780;7.726;2023-04-19T09:32:23;14.10;96.70
11824;DHT22;5969;50.780;7.726;2023-04-19T09:34:56;14.10;97.60
11824;DHT22;5969;50.780;7.726;2023-04-19T09:37:29;14.30;96.90
11824;DHT22;5969;50.780;7.726;2023-04-19T09:39:57;14.30;96.30
11824;DHT22;5969;50.780;7.726;2023-04-19T09:42:43;14.30;96.40
11824;DHT22;5969;50.780;7.726;2023-04-19T09:45:11;14.30;95.90
11824;DHT22;5969;50.780;7.726;2023-04-19T09:47:38;14.40;96.30
11824;DHT22;5969;50.780;7.726;2023-04-19T09:50:07;14.40;97.10
11824;DHT22;5969;50.780;7.726;2023-04-19T09:52:35;14.40;95.50
11824;DHT22;5969;50.780;7.726;2023-04-19T09:55:04;14.40;94.80
11824;DHT22;5969;50.780;7.726;2023-04-19T09:57:33;14.60;94.70
11824;DHT22;5969;50.780;7.726;2023-04-19T10:00:01;14.50;93.90
11824;DHT22;5969;50.780;7.726;2023-04-19T10:02:41;14.50;93.90
11824;DHT22;5969;50.780;7.726;2023-04-19T10:05:19;14.50;93.90
11824;DHT22;5969;50.780;7.726;2023-04-19T10:07:49;14.60;93.70
11824;DHT22;5969;50.780;7.726;2023-04-19T10:10:43;14.60;93.70
11824;DHT22;5969;50.780;7.726;2023-04-19T10:13:16;14.80;93.00
11824;DHT22;5969;50.780;7.726;2023-04-19T10:15:48;14.80;92.40
11824;DHT22;5969;50.780;7.726;2023-04-19T10:18:22;14.90;92.70
11824;DHT22;5969;50.780;7.726;2023-04-19T10:20:57;15.00;91.90
11824;DHT22;5969;50.780;7.726;2023-04-19T10:23:25;14.90;90.70
11824;DHT22;5969;50.780;7.726;2023-04-19T10:25:57;15.00;91.30
11824;DHT22;5969;50.780;7.726;2023-04-19T10:28:25;15.10;91.40
11824;DHT22;5969;50.780;7.726;2023-04-19T10:31:11;15.30;91.80
11824;DHT22;5969;50.780;7.726;2023-04-19T10:33:41;15.40;91.00
11824;DHT22;5969;50.780;7.726;2023-04-19T10:36:10;15.60;91.30
11824;DHT22;5969;50.780;7.726;2023-04-19T10:38:41;15.90;91.20
11824;DHT22;5969;50.780;7.726;2023-04-19T10:41:10;15.90;90.30
11824;DHT22;5969;50.780;7.726;2023-04-19T10:43:40;16.00;90.20
11824;DHT22;5969;50.780;7.726;2023-04-19T10:46:08;16.20;89.40
11824;DHT22;5969;50.780;7.726;2023-04-19T10:48:40;16.20;89.50
11824;DHT22;5969;50.780;7.726;2023-04-19T10:51:36;16.10;86.80
11824;DHT22;5969;50.780;7.726;2023-04-19T10:54:05;16.30;87.20
11824;DHT22;5969;50.780;7.726;2023-04-19T10:56:58;16.50;88.60
11824;DHT22;5969;50.780;7.726;2023-04-19T10:59:28;16.90;89.20
11824;DHT22;5969;50.780;7.726;2023-04-19T11:02:28;16.90;86.80
11824;DHT22;5969;50.780;7.726;2023-04-19T11:04:59;16.60;87.30
11824;DHT22;5969;50.780;7.726;2023-04-19T11:07:26;16.80;87.90
11824;DHT22;5969;50.780;7.726;2023-04-19T11:09:55;17.00;86.60
11824;DHT22;5969;50.780;7.726;2023-04-19T11:12:24;17.20;87.10
11824;DHT22;5969;50.780;7.726;2023-04-19T11:14:53;17.30;86.00
11824;DHT22;5969;50.780;7.726;2023-04-19T11:17:23;17.40;87.60
11824;DHT22;5969;50.780;7.726;2023-04-19T11:19:53;17.40;85.40
11824;DHT22;5969;50.780;7.726;2023-04-19T11:22:24;17.40;83.30
11824;DHT22;5969;50.780;7.726;2023-04-19T11:24:51;17.50;85.70
11824;DHT22;5969;50.780;7.726;2023-04-19T11:27:20;17.30;85.00
11824;DHT22;5969;50.780;7.726;2023-04-19T11:29:48;17.40;84.00
11824;DHT22;5969;50.780;7.726;2023-04-19T11:32:15;17.30;80.90
11824;DHT22;5969;50.780;7.726;2023-04-19T11:34:42;17.40;80.40
11824;DHT22;5969;50.780;7.726;2023-04-19T11:37:14;17.40;78.00
11824;DHT22;5969;50.780;7.726;2023-04-19T11:39:46;17.50;79.10
11824;DHT22;5969;50.780;7.726;2023-04-19T11:42:17;17.50;77.80
11824;DHT22;5969;50.780;7.726;2023-04-19T11:44:49;17.60;78.20
11824;DHT22;5969;50.780;7.726;2023-04-19T11:47:18;17.50;77.40
11824;DHT22;5969;50.780;7.726;2023-04-19T11:49:45;17.50;77.40
11824;DHT22;5969;50.780;7.726;2023-04-19T11:52:19;17.50;78.00
11824;DHT22;5969;50.780;7.726;2023-04-19T11:55:19;17.60;79.00
11824;DHT22;5969;50.780;7.726;2023-04-19T11:57:47;17.60;78.80
11824;DHT22;5969;50.780;7.726;2023-04-19T12:00:26;17.60;77.80
11824;DHT22;5969;50.780;7.726;2023-04-19T12:02:54;17.50;76.50
11824;DHT22;5969;50.780;7.726;2023-04-19T12:05:23;17.50;75.40
11824;DHT22;5969;50.780;7.726;2023-04-19T12:08:05;17.50;75.70
11824;DHT22;5969;50.780;7.726;2023-04-19T12:10:34;17.40;73.50
11824;DHT22;5969;50.780;7.726;2023-04-19T12:13:15;17.30;73.70
11824;DHT22;5969;50.780;7.726;2023-04-19T12:15:46;17.30;73.00
11824;DHT22;5969;50.780;7.726;2023-04-19T12:18:14;17.30;71.50
11824;DHT22;5969;50.780;7.726;2023-04-19T12:20:44;17.30;71.70
11824;DHT22;5969;50.780;7.726;2023-04-19T12:23:11;17.50;72.10
11824;DHT22;5969;50.780;7.726;2023-04-19T12:25:39;17.50;72.10
11824;DHT22;5969;50.780;7.726;2023-04-19T12:28:05;17.70;72.40
11824;DHT22;5969;50.780;7.726;2023-04-19T12:30:33;17.70;71.90
11824;DHT22;5969;50.780;7.726;2023-04-19T12:33:02;17.60;72.70
11824;DHT22;5969;50.780;7.726;2023-04-19T12:35:29;17.60;73.80
11824;DHT22;5969;50.780;7.726;2023-04-19T12:37:57;17.60;72.70
11824;DHT22;5969;50.780;7.726;2023-04-19T12:40:25;17.70;72.20
11824;DHT22;5969;50.780;7.726;2023-04-19T12:42:52;17.70;72.10
11824;DHT22;5969;50.780;7.726;2023-04-19T12:46:18;17.90;71.20
11824;DHT22;5969;50.780;7.726;2023-04-19T12:52:15;18.00;70.50
11824;DHT22;5969;50.780;7.726;2023-04-19T12:54:48;17.90;67.10
11824;DHT22;5969;50.780;7.726;2023-04-19T12:57:15;18.10;70.10
11824;DHT22;5969;50.780;7.726;2023-04-19T12:59:42;18.40;68.30
11824;DHT22;5969;50.780;7.726;2023-04-19T13:02:09;18.60;67.80
11824;DHT22;5969;50.780;7.726;2023-04-19T13:04:36;18.60;67.80
11824;DHT22;5969;50.780;7.726;2023-04-19T13:07:05;18.70;67.30
11824;DHT22;5969;50.780;7.726;2023-04-19T13:09:34;18.80;68.40
11824;DHT22;5969;50.780;7.726;2023-04-19T13:12:01;19.00;67.10
11824;DHT22;5969;50.780;7.726;2023-04-19T13:14:28;19.10;65.00
11824;DHT22;5969;50.780;7.726;2023-04-19T13:16:55;19.10;62.60
11824;DHT22;5969;50.780;7.726;2023-04-19T13:19:22;19.00;61.10
11824;DHT22;5969;50.780;7.726;2023-04-19T13:21:49;19.00;61.00
11824;DHT22;5969;50.780;7.726;2023-04-19T13:24:15;19.00;62.40
11824;DHT22;5969;50.780;7.726;2023-04-19T13:26:46;19.10;61.50
11824;DHT22;5969;50.780;7.726;2023-04-19T13:29:13;19.10;64.40
11824;DHT22;5969;50.780;7.726;2023-04-19T13:31:40;19.30;65.00
11824;DHT22;5969;50.780;7.726;2023-04-19T13:34:07;19.50;64.50
11824;DHT22;5969;50.780;7.726;2023-04-19T13:36:37;19.30;64.60
11824;DHT22;5969;50.780;7.726;2023-04-19T13:39:05;19.30;65.70
11824;DHT22;5969;50.780;7.726;2023-04-19T13:41:32;19.60;68.10
11824;DHT22;5969;50.780;7.726;2023-04-19T13:44:04;19.70;66.40
11824;DHT22;5969;50.780;7.726;2023-04-19T13:46:51;20.00;67.00
11824;DHT22;5969;50.780;7.726;2023-04-19T13:49:52;20.60;66.70
11824;DHT22;5969;50.780;7.726;2023-04-19T13:52:28;23.30;67.90
11824;DHT22;5969;50.780;7.726;2023-04-19T13:54:54;26.90;63.80
11824;DHT22;5969;50.780;7.726;2023-04-19T13:57:21;29.20;58.60
11824;DHT22;5969;50.780;7.726;2023-04-19T13:59:50;31.30;55.80
11824;DHT22;5969;50.780;7.726;2023-04-19T14:02:17;32.10;51.10
11824;DHT22;5969;50.780;7.726;2023-04-19T14:04:44;33.00;48.70
11824;DHT22;5969;50.780;7.726;2023-04-19T14:07:11;33.00;47.40
11824;DHT22;5969;50.780;7.726;2023-04-19T14:09:38;34.00;47.80
11824;DHT22;5969;50.780;7.726;2023-04-19T14:12:09;34.60;46.60
11824;DHT22;5969;50.780;7.726;2023-04-19T14:14:45;34.60;44.80
11824;DHT22;5969;50.780;7.726;2023-04-19T14:20:32;35.10;44.00
11824;DHT22;5969;50.780;7.726;2023-04-19T14:23:24;34.60;41.60
11824;DHT22;5969;50.780;7.726;2023-04-19T14:26:38;34.40;42.30
11824;DHT22;5969;50.780;7.726;2023-04-19T14:29:18;34.50;40.20
11824;DHT22;5969;50.780;7.726;2023-04-19T14:32:08;34.40;40.20
11824;DHT22;5969;50.780;7.726;2023-04-19T14:34:37;34.50;41.30
11824;DHT22;5969;50.780;7.726;2023-04-19T14:37:06;34.50;40.60
11824;DHT22;5969;50.780;7.726;2023-04-19T14:39:33;34.00;41.10
11824;DHT22;5969;50.780;7.726;2023-04-19T14:42:26;33.90;40.90
11824;DHT22;5969;50.780;7.726;2023-04-19T14:48:09;30.70;41.60
11824;DHT22;5969;50.780;7.726;2023-04-19T14:50:36;29.10;42.70
11824;DHT22;5969;50.780;7.726;2023-04-19T14:53:05;28.20;41.30
11824;DHT22;5969;50.780;7.726;2023-04-19T14:55:36;26.80;47.60
11824;DHT22;5969;50.780;7.726;2023-04-19T14:58:12;28.10;43.10
11824;DHT22;5969;50.780;7.726;2023-04-19T15:06:49;31.60;41.10
11824;DHT22;5969;50.780;7.726;2023-04-19T15:09:17;31.90;40.70
11824;DHT22;5969;50.780;7.726;2023-04-19T15:11:44;32.10;41.20
11824;DHT22;5969;50.780;7.726;2023-04-19T15:14:11;32.10;41.40
11824;DHT22;5969;50.780;7.726;2023-04-19T15:16:38;31.90;40.70
11824;DHT22;5969;50.780;7.726;2023-04-19T15:19:04;31.40;39.80
11824;DHT22;5969;50.780;7.726;2023-04-19T15:21:32;29.80;39.60
11824;DHT22;5969;50.780;7.726;2023-04-19T15:23:59;28.80;40.70
11824;DHT22;5969;50.780;7.726;2023-04-19T15:26:27;28.90;41.60
11824;DHT22;5969;50.780;7.726;2023-04-19T15:28:54;28.90;41.10
11824;DHT22;5969;50.780;7.726;2023-04-19T15:31:21;29.50;41.70
11824;DHT22;5969;50.780;7.726;2023-04-19T15:33:48;29.50;41.10
11824;DHT22;5969;50.780;7.726;2023-04-19T15:36:14;29.40;40.60
11824;DHT22;5969;50.780;7.726;2023-04-19T15:38:41;28.20;40.50
11824;DHT22;5969;50.780;7.726;2023-04-19T15:41:08;27.50;40.50
11824;DHT22;5969;50.780;7.726;2023-04-19T15:43:36;27.10;42.50
11824;DHT22;5969;50.780;7.726;2023-04-19T15:46:03;26.00;41.70
11824;DHT22;5969;50.780;7.726;2023-04-19T15:48:30;25.00;43.30
11824;DHT22;5969;50.780;7.726;2023-04-19T15:50:56;24.20;43.30
11824;DHT22;5969;50.780;7.726;2023-04-19T15:53:23;22.80;45.10
11824;DHT22;5969;50.780;7.726;2023-04-19T15:55:50;23.00;46.00
11824;DHT22;5969;50.780;7.726;2023-04-19T15:58:17;23.00;45.30
11824;DHT22;5969;50.780;7.726;2023-04-19T16:00:45;22.70;45.60
11824;DHT22;5969;50.780;7.726;2023-04-19T16:03:12;22.80;46.50
11824;DHT22;5969;50.780;7.726;2023-04-19T16:05:38;23.80;47.50
11824;DHT22;5969;50.780;7.726;2023-04-19T16:08:07;23.90;46.90
11824;DHT22;5969;50.780;7.726;2023-04-19T16:10:34;23.10;48.10
11824;DHT22;5969;50.780;7.726;2023-04-19T16:13:07;23.50;48.70
11824;DHT22;5969;50.780;7.726;2023-04-19T16:15:34;24.20;45.10
11824;DHT22;5969;50.780;7.726;2023-04-19T16:18:02;23.00;45.80
11824;DHT22;5969;50.780;7.726;2023-04-19T16:20:29;22.30;47.30
11824;DHT22;5969;50.780;7.726;2023-04-19T16:22:56;23.00;46.40